Time;durP1;ratioP1;P1;durP2;ratioP2;P2;SDS_P1;SDS_P2;PMS_P1;PMS_P2;Temp;Humidity;BMP_temperature;BMP_pressure;BME280_temperature;BME280_humidity;BME280_pressure;Samples;Min_cycle;Max_cycle;Signal;HPM_P1;HPM_P2
2021/10/15 00:01:21;;;;;;;;;;;20.80;60.40;;;;;;5073263;28;19928;-54
2021/10/15 00:03:48;;;;;;;;;;;20.80;60.40;;;;;;5072982;28;20015;-54
2021/10/15 00:06:15;;;;;;;;;;;20.80;60.40;;;;;;5073068;28;19968;-56
2021/10/15 00:08:42;;;;;;;;;;;20.80;60.30;;;;;;5072842;28;20299;-54
2021/10/15 00:11:09;;;;;;;;;;;20.80;60.30;;;;;;5073554;28;19932;-56
2021/10/15 00:13:36;;;;;;;;;;;20.80;60.30;;;;;;5072009;28;19924;-54
2021/10/15 00:16:03;;;;;;;;;;;20.80;60.30;;;;;;5072502;28;20023;-54
2021/10/15 00:18:30;;;;;;;;;;;20.80;60.20;;;;;;5054257;28;20007;-53
2021/10/15 00:20:56;;;;;;;;;;;20.80;60.20;;;;;;5071573;28;20007;-54
2021/10/15 00:23:23;;;;;;;;;;;20.80;60.20;;;;;;5071086;28;19924;-54
2021/10/15 00:25:50;;;;;;;;;;;20.70;60.10;;;;;;5071736;28;19936;-55
2021/10/15 00:28:17;;;;;;;;;;;20.70;60.00;;;;;;5072821;28;19924;-56
2021/10/15 00:30:44;;;;;;;;;;;20.70;60.10;;;;;;5087039;28;19924;-56
2021/10/15 00:33:11;;;;;;;;;;;20.80;60.10;;;;;;5071591;28;19977;-55
2021/10/15 00:35:39;;;;;;;;;;;20.70;60.00;;;;;;5071788;28;19925;-57
2021/10/15 00:38:06;;;;;;;;;;;20.70;60.00;;;;;;5072078;28;20291;-56
2021/10/15 00:40:33;;;;;;;;;;;20.70;59.90;;;;;;5071305;28;19931;-54
2021/10/15 00:42:59;;;;;;;;;;;20.70;60.00;;;;;;5087936;28;19931;-57
2021/10/15 00:45:26;;;;;;;;;;;20.80;60.00;;;;;;5071023;28;19956;-54
2021/10/15 00:47:53;;;;;;;;;;;20.70;59.90;;;;;;5071286;28;20411;-55
2021/10/15 00:50:20;;;;;;;;;;;20.70;59.90;;;;;;5071286;28;20015;-57
2021/10/15 00:52:47;;;;;;;;;;;20.80;60.00;;;;;;5070890;28;19946;-55
2021/10/15 00:55:14;;;;;;;;;;;20.70;59.80;;;;;;5070796;28;20007;-55
2021/10/15 00:57:41;;;;;;;;;;;20.80;59.90;;;;;;5072031;28;19924;-53
2021/10/15 01:00:08;;;;;;;;;;;20.80;59.90;;;;;;5072130;28;19939;-57
2021/10/15 01:02:35;;;;;;;;;;;20.70;59.70;;;;;;5072560;28;19925;-54
2021/10/15 01:05:04;;;;;;;;;;;20.70;59.70;;;;;;5072773;28;19959;-55
2021/10/15 01:07:31;;;;;;;;;;;20.70;59.70;;;;;;5071768;28;19964;-56
2021/10/15 01:09:58;;;;;;;;;;;20.80;59.80;;;;;;5071051;28;20015;-54
2021/10/15 01:12:25;;;;;;;;;;;20.70;59.70;;;;;;5071081;28;19967;-54
2021/10/15 01:14:52;;;;;;;;;;;20.70;59.70;;;;;;5071788;28;19928;-56
2021/10/15 01:17:19;;;;;;;;;;;20.80;59.80;;;;;;5065030;28;19936;-56
2021/10/15 01:19:50;;;;;;;;;;;20.70;59.70;;;;;;5069991;28;19924;-53
2021/10/15 01:22:17;;;;;;;;;;;20.70;59.70;;;;;;5070851;28;19983;-54
2021/10/15 01:24:44;;;;;;;;;;;20.70;59.70;;;;;;5087381;28;20011;-54
2021/10/15 01:27:11;;;;;;;;;;;20.70;59.60;;;;;;5071917;28;19925;-53
2021/10/15 01:29:38;;;;;;;;;;;20.70;59.60;;;;;;5070980;28;20023;-54
2021/10/15 01:32:07;;;;;;;;;;;20.70;59.60;;;;;;5071229;28;19967;-56
2021/10/15 01:34:35;;;;;;;;;;;20.70;59.60;;;;;;5070460;28;19939;-55
2021/10/15 01:37:02;;;;;;;;;;;20.70;59.60;;;;;;5073360;28;20015;-57
2021/10/15 01:39:28;;;;;;;;;;;20.70;59.50;;;;;;5074754;28;20380;-55
2021/10/15 01:41:55;;;;;;;;;;;20.70;59.50;;;;;;5075836;28;20023;-55
2021/10/15 01:44:22;;;;;;;;;;;20.70;59.50;;;;;;5074667;28;20044;-54
2021/10/15 01:46:49;;;;;;;;;;;20.70;59.50;;;;;;5076055;28;19924;-55
2021/10/15 01:49:16;;;;;;;;;;;20.70;59.50;;;;;;5074456;28;19924;-56
2021/10/15 01:51:44;;;;;;;;;;;20.70;59.50;;;;;;5075727;28;20427;-52
2021/10/15 01:54:10;;;;;;;;;;;20.70;59.40;;;;;;5075565;28;19931;-53
2021/10/15 01:56:37;;;;;;;;;;;20.70;59.40;;;;;;5075621;28;20392;-54
2021/10/15 01:59:05;;;;;;;;;;;20.70;59.40;;;;;;5057240;28;20442;-54
2021/10/15 02:01:32;;;;;;;;;;;20.70;59.40;;;;;;5074717;28;19924;-56
2021/10/15 02:03:59;;;;;;;;;;;20.70;59.40;;;;;;5074512;28;19924;-57
2021/10/15 02:06:26;;;;;;;;;;;20.70;59.40;;;;;;5075318;28;20023;-57
2021/10/15 02:08:53;;;;;;;;;;;20.70;59.40;;;;;;5074097;28;19932;-55
2021/10/15 02:11:20;;;;;;;;;;;20.70;59.40;;;;;;5075157;28;20011;-56
2021/10/15 02:13:47;;;;;;;;;;;20.70;59.30;;;;;;5074983;28;20404;-54
2021/10/15 02:16:14;;;;;;;;;;;20.70;59.30;;;;;;5064178;28;20019;-52
2021/10/15 02:18:41;;;;;;;;;;;20.70;59.30;;;;;;5074120;28;19925;-56
2021/10/15 02:21:08;;;;;;;;;;;20.70;59.30;;;;;;5074744;28;19974;-55
2021/10/15 02:23:35;;;;;;;;;;;20.70;59.30;;;;;;5074866;28;20471;-53
2021/10/15 02:26:02;;;;;;;;;;;20.70;59.30;;;;;;5074141;28;20007;-58
2021/10/15 02:28:29;;;;;;;;;;;20.70;59.30;;;;;;5073725;28;19935;-53
2021/10/15 02:30:55;;;;;;;;;;;20.70;59.30;;;;;;5074833;28;20015;-56
2021/10/15 02:33:22;;;;;;;;;;;20.70;59.30;;;;;;5074746;28;19928;-54
2021/10/15 02:35:49;;;;;;;;;;;20.70;59.30;;;;;;5073800;28;20067;-56
2021/10/15 02:38:16;;;;;;;;;;;20.70;59.30;;;;;;5073835;28;19924;-55
2021/10/15 02:40:44;;;;;;;;;;;20.70;59.30;;;;;;5069500;28;19925;-56
2021/10/15 02:43:11;;;;;;;;;;;20.60;59.20;;;;;;5074425;28;20011;-55
2021/10/15 02:45:39;;;;;;;;;;;20.70;59.30;;;;;;5074933;28;20323;-53
2021/10/15 02:48:06;;;;;;;;;;;20.70;59.20;;;;;;5073718;28;19925;-54
2021/10/15 02:50:33;;;;;;;;;;;20.70;59.30;;;;;;5074831;28;19924;-57
2021/10/15 02:53:00;;;;;;;;;;;20.70;59.20;;;;;;5073772;28;20458;-57
2021/10/15 02:55:27;;;;;;;;;;;20.70;59.20;;;;;;5073444;28;20011;-53
2021/10/15 02:57:54;;;;;;;;;;;20.70;59.20;;;;;;5073051;28;20388;-57
2021/10/15 03:00:21;;;;;;;;;;;20.60;59.10;;;;;;5073380;28;20024;-57
2021/10/15 03:02:48;;;;;;;;;;;20.70;59.20;;;;;;5073038;28;20312;-53
2021/10/15 03:05:15;;;;;;;;;;;20.60;59.10;;;;;;5073118;28;19928;-53
2021/10/15 03:07:42;;;;;;;;;;;20.60;59.10;;;;;;5072994;28;20372;-54
2021/10/15 03:10:09;;;;;;;;;;;20.60;59.10;;;;;;5074053;28;20027;-56
2021/10/15 03:12:37;;;;;;;;;;;20.60;59.10;;;;;;5072913;28;19925;-55
2021/10/15 03:15:07;;;;;;;;;;;20.70;59.10;;;;;;5074274;28;20023;-54
2021/10/15 03:17:34;;;;;;;;;;;20.70;59.20;;;;;;5073751;28;19975;-55
2021/10/15 03:20:01;;;;;;;;;;;20.70;59.10;;;;;;5073079;28;20404;-54
2021/10/15 03:22:28;;;;;;;;;;;20.60;59.00;;;;;;5073925;28;19971;-56
2021/10/15 03:24:55;;;;;;;;;;;20.60;59.00;;;;;;5074010;28;20012;-55
2021/10/15 03:27:22;;;;;;;;;;;20.70;59.10;;;;;;5073017;28;19956;-54
2021/10/15 03:29:49;;;;;;;;;;;20.70;59.10;;;;;;5074050;28;19925;-56
2021/10/15 03:32:16;;;;;;;;;;;20.70;59.10;;;;;;5072750;28;19924;-54
2021/10/15 03:34:42;;;;;;;;;;;20.70;59.10;;;;;;5074047;28;20440;-55
2021/10/15 03:37:09;;;;;;;;;;;20.70;59.10;;;;;;5073399;28;20000;-54
2021/10/15 03:39:36;;;;;;;;;;;20.60;59.00;;;;;;5072585;28;20019;-56
2021/10/15 03:42:03;;;;;;;;;;;20.60;59.00;;;;;;5072795;28;19928;-54
2021/10/15 03:44:30;;;;;;;;;;;20.60;59.00;;;;;;5072753;28;20023;-53
2021/10/15 03:46:57;;;;;;;;;;;20.60;59.00;;;;;;5072749;28;20012;-54
2021/10/15 03:49:24;;;;;;;;;;;20.60;59.00;;;;;;5073713;28;19924;-54
2021/10/15 03:51:51;;;;;;;;;;;20.60;59.00;;;;;;5073215;28;20008;-57
2021/10/15 03:54:18;;;;;;;;;;;20.60;58.90;;;;;;5071977;28;19925;-56
2021/10/15 03:56:45;;;;;;;;;;;20.60;58.90;;;;;;5072009;28;19956;-53
2021/10/15 03:59:12;;;;;;;;;;;20.60;58.90;;;;;;5072675;28;20439;-57
2021/10/15 04:01:39;;;;;;;;;;;20.60;58.90;;;;;;5071976;28;19924;-53
2021/10/15 04:04:06;;;;;;;;;;;20.60;58.90;;;;;;5072295;28;20011;-57
2021/10/15 04:06:33;;;;;;;;;;;20.60;58.90;;;;;;5072456;28;19975;-56
2021/10/15 04:09:00;;;;;;;;;;;20.60;58.90;;;;;;5073276;28;19931;-53
2021/10/15 04:11:26;;;;;;;;;;;20.60;58.90;;;;;;5073408;28;19924;-56
2021/10/15 04:13:53;;;;;;;;;;;20.60;58.90;;;;;;5072633;28;20406;-58
2021/10/15 04:16:20;;;;;;;;;;;20.60;58.90;;;;;;5071469;28;19963;-56
2021/10/15 04:18:47;;;;;;;;;;;20.60;58.90;;;;;;5071605;28;19924;-51
2021/10/15 04:21:14;;;;;;;;;;;20.60;58.90;;;;;;5085763;28;20015;-54
2021/10/15 04:23:41;;;;;;;;;;;20.60;58.90;;;;;;5072991;28;19925;-52
2021/10/15 04:26:08;;;;;;;;;;;20.60;58.80;;;;;;5072425;28;19995;-55
2021/10/15 04:28:35;;;;;;;;;;;20.60;58.80;;;;;;5071387;28;19976;-56
2021/10/15 04:31:02;;;;;;;;;;;20.60;58.80;;;;;;5071663;28;19975;-50
2021/10/15 04:33:29;;;;;;;;;;;20.60;58.80;;;;;;5073004;28;20285;-54
2021/10/15 04:35:56;;;;;;;;;;;20.60;58.80;;;;;;5071548;28;20017;-54
2021/10/15 04:38:23;;;;;;;;;;;20.60;58.80;;;;;;5071684;28;20000;-54
2021/10/15 04:40:50;;;;;;;;;;;20.60;58.70;;;;;;5072639;28;19931;-56
2021/10/15 04:43:17;;;;;;;;;;;20.60;58.70;;;;;;5071053;28;20273;-54
2021/10/15 04:45:44;;;;;;;;;;;20.60;58.70;;;;;;5086737;28;20059;-55
2021/10/15 04:48:11;;;;;;;;;;;20.60;58.70;;;;;;5072150;28;19924;-57
2021/10/15 04:50:39;;;;;;;;;;;20.60;58.70;;;;;;5070994;28;19972;-55
2021/10/15 04:53:07;;;;;;;;;;;20.60;58.70;;;;;;5072150;28;20427;-55
2021/10/15 04:55:35;;;;;;;;;;;20.60;58.70;;;;;;5071124;28;19932;-56
2021/10/15 04:58:03;;;;;;;;;;;20.60;58.70;;;;;;5071738;28;20419;-56
2021/10/15 05:00:30;;;;;;;;;;;20.60;59.30;;;;;;5071156;28;19938;-57
2021/10/15 05:02:58;;;;;;;;;;;20.60;58.70;;;;;;5071374;28;19928;-56
2021/10/15 05:05:27;;;;;;;;;;;20.60;58.70;;;;;;5071408;28;20418;-54
2021/10/15 05:07:55;;;;;;;;;;;20.60;58.70;;;;;;5070744;28;19928;-52
2021/10/15 05:10:23;;;;;;;;;;;20.60;58.70;;;;;;5070280;28;19971;-54
2021/10/15 05:12:51;;;;;;;;;;;20.60;58.70;;;;;;5071688;28;19978;-57
2021/10/15 05:15:18;;;;;;;;;;;20.60;58.60;;;;;;5071802;28;19931;-56
2021/10/15 05:17:45;;;;;;;;;;;20.60;58.60;;;;;;5071334;28;19925;-51
2021/10/15 05:20:15;;;;;;;;;;;20.60;58.60;;;;;;5070492;28;19967;-57
2021/10/15 05:22:42;;;;;;;;;;;20.60;58.60;;;;;;5070574;28;19970;-51
2021/10/15 05:25:10;;;;;;;;;;;20.60;58.60;;;;;;5070639;28;19983;-51
2021/10/15 05:27:37;;;;;;;;;;;20.60;58.60;;;;;;5069477;28;20004;-55
2021/10/15 05:30:06;;;;;;;;;;;20.60;58.60;;;;;;5054789;28;20054;-56
2021/10/15 05:32:33;;;;;;;;;;;20.60;58.60;;;;;;5071742;28;19924;-52
2021/10/15 05:35:00;;;;;;;;;;;20.60;58.60;;;;;;5070896;28;19932;-56
2021/10/15 05:37:27;;;;;;;;;;;20.60;58.60;;;;;;5070433;28;19925;-57
2021/10/15 05:39:54;;;;;;;;;;;20.60;58.50;;;;;;5070675;28;19928;-54
2021/10/15 05:42:21;;;;;;;;;;;20.60;58.50;;;;;;5071649;28;19970;-55
2021/10/15 05:44:48;;;;;;;;;;;20.60;58.50;;;;;;5071663;28;19978;-56
2021/10/15 05:47:15;;;;;;;;;;;20.60;58.50;;;;;;5071955;28;19925;-53
2021/10/15 05:49:42;;;;;;;;;;;20.60;58.50;;;;;;5086869;28;19925;-55
2021/10/15 05:52:16;;;;;;;;;;;20.60;58.50;;;;;;5070753;28;19955;-56
2021/10/15 05:59:42;;;;;;;;;;;20.60;58.50;;;;;;5076645;28;19974;-56
2021/10/15 06:02:10;;;;;;;;;;;20.60;58.40;;;;;;5071248;28;19924;-55
2021/10/15 06:08:55;;;;;;;;;;;20.60;58.40;;;;;;5071402;28;19931;-50
2021/10/15 06:15:59;;;;;;;;;;;20.60;58.30;;;;;;5008540;28;19953;-52
2021/10/15 06:18:26;;;;;;;;;;;20.60;58.30;;;;;;5008218;28;20408;-54
2021/10/15 06:20:53;;;;;;;;;;;20.60;58.20;;;;;;5007349;28;19929;-54
2021/10/15 06:23:20;;;;;;;;;;;20.70;58.40;;;;;;5012090;28;20016;-57
2021/10/15 06:25:47;;;;;;;;;;;20.60;58.20;;;;;;5011562;28;20065;-55
2021/10/15 06:28:14;;;;;;;;;;;20.70;58.30;;;;;;5000589;28;19972;-55
2021/10/15 06:30:42;;;;;;;;;;;20.60;58.20;;;;;;5003437;28;20345;-54
2021/10/15 06:33:09;;;;;;;;;;;20.70;58.30;;;;;;4997814;28;19965;-53
2021/10/15 06:35:36;;;;;;;;;;;20.70;58.30;;;;;;5011567;28;19925;-53
2021/10/15 06:38:07;;;;;;;;;;;20.70;58.30;;;;;;5009011;28;19933;-56
2021/10/15 06:40:34;;;;;;;;;;;20.70;58.30;;;;;;5009280;28;19926;-55
2021/10/15 06:43:01;;;;;;;;;;;20.70;58.30;;;;;;5011613;28;19980;-54
2021/10/15 06:45:28;;;;;;;;;;;20.70;58.30;;;;;;5012846;28;19925;-56
2021/10/15 06:47:55;;;;;;;;;;;20.70;58.30;;;;;;5017710;28;20008;-54
2021/10/15 06:50:22;;;;;;;;;;;20.70;58.30;;;;;;5074375;28;19925;-56
2021/10/15 06:52:49;;;;;;;;;;;20.70;58.30;;;;;;5074361;28;20019;-53
2021/10/15 06:55:17;;;;;;;;;;;20.70;58.30;;;;;;5074177;28;20026;-56
2021/10/15 06:57:44;;;;;;;;;;;20.70;58.30;;;;;;5074540;28;20302;-56
2021/10/15 07:00:13;;;;;;;;;;;20.70;58.30;;;;;;5074280;28;20346;-52
2021/10/15 07:02:40;;;;;;;;;;;20.70;58.30;;;;;;5074379;28;20011;-52
2021/10/15 07:05:08;;;;;;;;;;;20.70;58.30;;;;;;5073031;28;19964;-52
2021/10/15 07:07:36;;;;;;;;;;;20.70;58.30;;;;;;5073687;28;19960;-54
2021/10/15 07:10:04;;;;;;;;;;;20.70;58.90;;;;;;5074322;28;20007;-55
2021/10/15 07:12:41;;;;;;;;;;;20.70;58.20;;;;;;5074474;28;20003;-54
2021/10/15 07:15:10;;;;;;;;;;;20.70;58.20;;;;;;5073617;28;19928;-55
2021/10/15 07:17:37;;;;;;;;;;;20.70;58.20;;;;;;5074238;28;19925;-53
2021/10/15 07:20:05;;;;;;;;;;;20.70;58.20;;;;;;5073809;28;19924;-56
2021/10/15 07:22:32;;;;;;;;;;;20.70;58.20;;;;;;5073111;28;19970;-51
2021/10/15 07:24:59;;;;;;;;;;;20.70;58.20;;;;;;5073727;28;20038;-54
2021/10/15 07:27:26;;;;;;;;;;;20.70;58.10;;;;;;5073490;28;19929;-56
2021/10/15 07:29:53;;;;;;;;;;;20.70;58.10;;;;;;5089946;28;19970;-54
2021/10/15 07:32:20;;;;;;;;;;;20.70;58.10;;;;;;5073734;28;19931;-55
2021/10/15 07:34:47;;;;;;;;;;;20.70;58.20;;;;;;5071916;28;19974;-53
2021/10/15 07:37:16;;;;;;;;;;;20.70;58.10;;;;;;5072739;28;20343;-58
2021/10/15 07:39:43;;;;;;;;;;;20.70;58.10;;;;;;5073713;28;19924;-58
2021/10/15 07:42:10;;;;;;;;;;;20.80;58.10;;;;;;5072915;28;20388;-57
2021/10/15 07:44:37;;;;;;;;;;;20.70;58.00;;;;;;5072668;28;19963;-57
2021/10/15 07:47:04;;;;;;;;;;;20.70;58.00;;;;;;5072483;28;19935;-58
2021/10/15 07:49:32;;;;;;;;;;;20.80;58.30;;;;;;5073281;28;20039;-54
2021/10/15 07:51:59;;;;;;;;;;;20.80;58.00;;;;;;5073502;28;19924;-54
2021/10/15 07:54:26;;;;;;;;;;;20.80;57.90;;;;;;5072905;28;20019;-56
2021/10/15 07:56:53;;;;;;;;;;;20.80;57.80;;;;;;5072955;28;20050;-56
2021/10/15 07:59:20;;;;;;;;;;;20.80;57.80;;;;;;5072044;28;19978;-57
2021/10/15 08:01:47;;;;;;;;;;;20.80;58.40;;;;;;5072325;28;19924;-58
2021/10/15 08:04:14;;;;;;;;;;;20.80;57.80;;;;;;5054077;28;19960;-54
2021/10/15 08:06:48;;;;;;;;;;;20.80;57.70;;;;;;5055825;28;19924;-54
2021/10/15 08:09:15;;;;;;;;;;;20.80;57.70;;;;;;5072163;28;19974;-55
2021/10/15 08:11:42;;;;;;;;;;;20.80;57.70;;;;;;5071794;28;19929;-58
2021/10/15 08:14:09;;;;;;;;;;;20.80;57.60;;;;;;5055073;28;20293;-55
2021/10/15 08:16:36;;;;;;;;;;;20.90;57.70;;;;;;5071863;28;19932;-54
2021/10/15 08:19:03;;;;;;;;;;;20.90;57.70;;;;;;5071387;28;19925;-55
2021/10/15 08:21:30;;;;;;;;;;;20.90;57.60;;;;;;5072893;28;19960;-54
2021/10/15 08:23:57;;;;;;;;;;;20.90;57.60;;;;;;5064790;28;19924;-56
2021/10/15 08:26:29;;;;;;;;;;;20.90;57.60;;;;;;5071184;28;19930;-53
2021/10/15 08:28:59;;;;;;;;;;;20.90;58.20;;;;;;5055579;28;19924;-55
2021/10/15 08:31:28;;;;;;;;;;;20.90;57.90;;;;;;5072630;28;19925;-58
2021/10/15 08:33:56;;;;;;;;;;;20.90;57.60;;;;;;5071811;28;19925;-57
2021/10/15 08:36:23;;;;;;;;;;;20.90;57.60;;;;;;5055175;28;20327;-54
2021/10/15 08:38:50;;;;;;;;;;;20.90;57.60;;;;;;5071634;28;19928;-57
2021/10/15 08:41:23;;;;;;;;;;;20.90;57.60;;;;;;5072694;28;19932;-54
2021/10/15 08:43:54;;;;;;;;;;;20.90;57.60;;;;;;5072594;28;19930;-55
2021/10/15 08:46:24;;;;;;;;;;;20.90;57.60;;;;;;5070977;28;20011;-54
2021/10/15 08:48:51;;;;;;;;;;;20.90;57.60;;;;;;5072344;28;20011;-55
2021/10/15 08:51:19;;;;;;;;;;;20.90;57.60;;;;;;5072548;28;19929;-56
2021/10/15 08:53:49;;;;;;;;;;;20.90;57.60;;;;;;5072148;28;19967;-57
2021/10/15 08:56:17;;;;;;;;;;;20.90;57.50;;;;;;5071918;28;19950;-54
2021/10/15 08:58:47;;;;;;;;;;;20.90;57.50;;;;;;5070869;28;19972;-55
2021/10/15 09:01:14;;;;;;;;;;;20.90;57.50;;;;;;5070925;28;20384;-57
2021/10/15 09:03:42;;;;;;;;;;;20.90;57.50;;;;;;5072355;28;19931;-56
2021/10/15 09:06:10;;;;;;;;;;;20.90;57.50;;;;;;5070989;28;19925;-54
2021/10/15 09:08:43;;;;;;;;;;;20.90;57.50;;;;;;5072118;28;19986;-57
2021/10/15 09:11:28;;;;;;;;;;;20.90;57.50;;;;;;5072205;28;19924;-56
2021/10/15 09:14:06;;;;;;;;;;;20.90;57.50;;;;;;5071230;28;19940;-53
2021/10/15 09:16:52;;;;;;;;;;;20.90;57.50;;;;;;5054555;28;19963;-58
2021/10/15 09:19:25;;;;;;;;;;;20.90;57.50;;;;;;5071364;28;19924;-55
2021/10/15 09:22:25;;;;;;;;;;;20.90;57.50;;;;;;5071477;28;20325;-55
2021/10/15 09:25:08;;;;;;;;;;;20.90;57.50;;;;;;5009493;28;19984;-53
2021/10/15 09:27:37;;;;;;;;;;;20.90;57.50;;;;;;5010030;28;19932;-55
2021/10/15 09:30:09;;;;;;;;;;;20.90;57.40;;;;;;4993161;28;19926;-55
2021/10/15 09:32:40;;;;;;;;;;;20.90;57.40;;;;;;5009501;28;19936;-57
2021/10/15 09:35:09;;;;;;;;;;;20.90;57.40;;;;;;5009711;28;19926;-51
2021/10/15 09:37:37;;;;;;;;;;;20.90;57.40;;;;;;4997113;28;19937;-54
2021/10/15 09:40:06;;;;;;;;;;;20.90;57.40;;;;;;4994556;28;20008;-55
2021/10/15 09:42:34;;;;;;;;;;;20.90;57.40;;;;;;5004735;28;19925;-56
2021/10/15 09:45:04;;;;;;;;;;;20.90;57.30;;;;;;5002593;28;20005;-55
2021/10/15 09:47:33;;;;;;;;;;;20.90;57.30;;;;;;4994683;28;19930;-56
2021/10/15 09:50:01;;;;;;;;;;;20.90;57.30;;;;;;4997198;28;19969;-57
2021/10/15 09:52:44;;;;;;;;;;;20.90;57.20;;;;;;4994682;28;19925;-56
2021/10/15 09:55:15;;;;;;;;;;;20.90;57.20;;;;;;4995512;28;20350;-56
2021/10/15 09:57:44;;;;;;;;;;;20.90;57.20;;;;;;5010835;28;19987;-53
2021/10/15 10:00:13;;;;;;;;;;;20.90;57.10;;;;;;5019148;28;19959;-57
2021/10/15 10:02:40;;;;;;;;;;;20.90;57.10;;;;;;5074713;28;19978;-53
2021/10/15 10:05:15;;;;;;;;;;;20.90;57.60;;;;;;5074788;28;20011;-54
2021/10/15 10:07:44;;;;;;;;;;;20.90;57.10;;;;;;5075565;28;19928;-56
2021/10/15 10:10:12;;;;;;;;;;;20.90;57.00;;;;;;5074059;28;20400;-54
2021/10/15 10:12:40;;;;;;;;;;;20.90;57.00;;;;;;5075285;28;19929;-55
2021/10/15 10:15:08;;;;;;;;;;;20.90;57.00;;;;;;5074342;28;20015;-55
2021/10/15 10:17:38;;;;;;;;;;;21.00;57.10;;;;;;5073939;28;20307;-58
2021/10/15 10:20:10;;;;;;;;;;;20.90;57.00;;;;;;5075398;28;19931;-57
2021/10/15 10:22:42;;;;;;;;;;;21.00;57.00;;;;;;5075428;28;20340;-55
2021/10/15 10:25:20;;;;;;;;;;;20.90;56.90;;;;;;5069509;28;19929;-54
2021/10/15 10:27:47;;;;;;;;;;;20.90;56.90;;;;;;5073726;28;19974;-54
2021/10/15 10:30:16;;;;;;;;;;;21.00;56.90;;;;;;5073523;28;19931;-55
2021/10/15 10:32:58;;;;;;;;;;;21.00;56.90;;;;;;5074877;28;19925;-58
2021/10/15 10:35:25;;;;;;;;;;;20.90;56.80;;;;;;5075137;28;20019;-56
2021/10/15 10:38:11;;;;;;;;;;;20.90;56.80;;;;;;5074950;28;20019;-55
2021/10/15 10:40:59;;;;;;;;;;;21.00;56.90;;;;;;5059728;28;19931;-55
2021/10/15 10:43:26;;;;;;;;;;;21.00;56.80;;;;;;5074489;28;19929;-54
2021/10/15 10:46:08;;;;;;;;;;;21.00;56.80;;;;;;5074465;28;20015;-53
2021/10/15 10:48:50;;;;;;;;;;;21.00;56.80;;;;;;5074033;28;19924;-54
2021/10/15 10:51:17;;;;;;;;;;;21.00;56.80;;;;;;5074073;28;19971;-57
2021/10/15 10:53:59;;;;;;;;;;;21.00;56.80;;;;;;5074978;28;19996;-54
2021/10/15 10:56:39;;;;;;;;;;;21.00;56.80;;;;;;5074009;28;20446;-57
2021/10/15 10:59:18;;;;;;;;;;;21.00;56.70;;;;;;5072601;28;20023;-54
2021/10/15 11:01:45;;;;;;;;;;;21.00;56.70;;;;;;5074313;28;20434;-57
2021/10/15 11:04:24;;;;;;;;;;;21.00;56.70;;;;;;5074090;28;19925;-54
2021/10/15 11:06:58;;;;;;;;;;;21.00;56.60;;;;;;5073377;28;20011;-57
2021/10/15 11:09:29;;;;;;;;;;;21.00;56.60;;;;;;5071987;28;20341;-53
2021/10/15 11:11:57;;;;;;;;;;;21.00;56.60;;;;;;5073040;28;19935;-55
2021/10/15 11:14:44;;;;;;;;;;;21.00;56.60;;;;;;5072859;28;19971;-56
2021/10/15 11:17:11;;;;;;;;;;;21.00;56.60;;;;;;5072571;28;19925;-55
2021/10/15 11:19:39;;;;;;;;;;;21.00;56.50;;;;;;5072680;28;19924;-56
2021/10/15 11:22:06;;;;;;;;;;;21.00;56.50;;;;;;5073918;28;19932;-56
2021/10/15 11:24:34;;;;;;;;;;;21.00;56.50;;;;;;5074251;28;19925;-55
2021/10/15 11:27:01;;;;;;;;;;;21.00;56.50;;;;;;5073852;28;19928;-51
2021/10/15 11:29:46;;;;;;;;;;;21.00;56.50;;;;;;5074151;28;20374;-53
2021/10/15 11:32:26;;;;;;;;;;;21.00;56.50;;;;;;5073648;28;20026;-54
2021/10/15 11:35:23;;;;;;;;;;;21.00;56.50;;;;;;5072961;28;20005;-53
2021/10/15 11:37:50;;;;;;;;;;;21.00;56.50;;;;;;5024156;28;19929;-53
2021/10/15 11:40:20;;;;;;;;;;;21.00;56.40;;;;;;5010414;28;19933;-55
2021/10/15 11:42:48;;;;;;;;;;;21.00;56.40;;;;;;5010094;28;19977;-54
2021/10/15 11:45:32;;;;;;;;;;;21.00;56.50;;;;;;5011260;28;19929;-57
2021/10/15 11:48:02;;;;;;;;;;;21.00;56.40;;;;;;5010556;28;19925;-56
2021/10/15 11:50:30;;;;;;;;;;;21.00;56.40;;;;;;5011604;28;19992;-56
2021/10/15 11:52:57;;;;;;;;;;;21.00;56.40;;;;;;5010160;28;19925;-55
2021/10/15 11:55:31;;;;;;;;;;;21.10;56.40;;;;;;5011092;28;19925;-52
2021/10/15 11:58:16;;;;;;;;;;;21.00;56.30;;;;;;5023459;28;19925;-53
2021/10/15 12:00:54;;;;;;;;;;;21.00;56.30;;;;;;5026352;28;19925;-56
2021/10/15 12:03:24;;;;;;;;;;;21.00;56.30;;;;;;4998144;28;19965;-54
2021/10/15 12:05:51;;;;;;;;;;;21.10;56.40;;;;;;5011067;28;19925;-55
2021/10/15 12:08:18;;;;;;;;;;;21.00;56.30;;;;;;5009599;28;20029;-54
2021/10/15 12:10:46;;;;;;;;;;;21.00;56.90;;;;;;5010072;28;20373;-56
2021/10/15 12:13:14;;;;;;;;;;;21.00;56.30;;;;;;4996995;28;20013;-55
2021/10/15 12:15:41;;;;;;;;;;;21.10;56.40;;;;;;5041757;28;20307;-55
2021/10/15 12:18:08;;;;;;;;;;;21.10;56.30;;;;;;5072894;28;19972;-54
2021/10/15 12:20:36;;;;;;;;;;;21.10;56.30;;;;;;5072578;28;19924;-55
2021/10/15 12:23:03;;;;;;;;;;;21.10;56.30;;;;;;5071923;28;19924;-56
2021/10/15 12:25:30;;;;;;;;;;;21.10;56.30;;;;;;5071071;28;19925;-56
2021/10/15 12:27:57;;;;;;;;;;;21.10;56.30;;;;;;5071554;28;20007;-54
2021/10/15 12:30:25;;;;;;;;;;;21.10;56.30;;;;;;5071777;28;20339;-55
2021/10/15 12:32:52;;;;;;;;;;;21.10;56.30;;;;;;5072742;28;19970;-56
2021/10/15 12:35:22;;;;;;;;;;;21.10;56.30;;;;;;5072669;28;19978;-56
2021/10/15 12:37:49;;;;;;;;;;;21.10;56.30;;;;;;5071173;28;20494;-53
2021/10/15 12:40:16;;;;;;;;;;;21.10;56.30;;;;;;5071137;28;19973;-56
2021/10/15 12:42:45;;;;;;;;;;;21.10;56.30;;;;;;5071255;28;19997;-57
2021/10/15 12:45:16;;;;;;;;;;;21.10;56.30;;;;;;5071237;28;20392;-54
2021/10/15 12:48:16;;;;;;;;;;;21.10;56.30;;;;;;5072523;28;19924;-55
2021/10/15 12:51:04;;;;;;;;;;;21.10;56.30;;;;;;5019554;28;19979;-57
2021/10/15 12:53:36;;;;;;;;;;;21.10;56.30;;;;;;4992613;28;20012;-53
2021/10/15 12:56:03;;;;;;;;;;;21.10;56.30;;;;;;4994906;28;20052;-56
2021/10/15 12:58:31;;;;;;;;;;;21.10;56.30;;;;;;4994840;28;19930;-54
2021/10/15 13:01:01;;;;;;;;;;;21.10;56.30;;;;;;5009372;28;20207;-54
2021/10/15 13:03:30;;;;;;;;;;;21.10;56.20;;;;;;4991883;28;20402;-56
2021/10/15 13:05:58;;;;;;;;;;;21.10;56.30;;;;;;4993901;28;19976;-54
2021/10/15 13:08:26;;;;;;;;;;;21.10;56.20;;;;;;4993865;28;19949;-56
2021/10/15 13:10:53;;;;;;;;;;;21.10;56.20;;;;;;4993725;28;19977;-55
2021/10/15 13:13:20;;;;;;;;;;;21.10;56.20;;;;;;4993564;28;19941;-56
2021/10/15 13:15:47;;;;;;;;;;;21.10;56.20;;;;;;4987032;28;19925;-54
2021/10/15 13:18:14;;;;;;;;;;;21.10;56.20;;;;;;4985888;28;19971;-51
2021/10/15 13:20:44;;;;;;;;;;;21.10;56.20;;;;;;4993892;28;20339;-55
2021/10/15 13:23:12;;;;;;;;;;;21.20;56.30;;;;;;4995997;28;20020;-54
2021/10/15 13:25:38;;;;;;;;;;;21.10;56.20;;;;;;5001632;28;19931;-55
2021/10/15 13:28:05;;;;;;;;;;;21.10;56.20;;;;;;5050731;28;19979;-55
2021/10/15 13:30:32;;;;;;;;;;;21.10;56.20;;;;;;5050861;28;20037;-53
2021/10/15 13:33:00;;;;;;;;;;;21.20;56.30;;;;;;5050483;28;19925;-50
2021/10/15 13:35:28;;;;;;;;;;;21.10;56.20;;;;;;5050456;28;19925;-55
2021/10/15 13:38:04;;;;;;;;;;;21.10;56.30;;;;;;5048688;28;19924;-57
2021/10/15 13:40:38;;;;;;;;;;;21.20;56.40;;;;;;5051705;28;19929;-58
2021/10/15 13:43:14;;;;;;;;;;;21.10;56.30;;;;;;5051864;28;20360;-58
2021/10/15 13:45:48;;;;;;;;;;;21.10;56.30;;;;;;5050851;28;20401;-56
2021/10/15 13:51:00;;;;;;;;;;;21.10;56.30;;;;;;5051952;28;19932;-55
2021/10/15 13:53:31;;;;;;;;;;;21.10;56.30;;;;;;5053401;28;20023;-55
2021/10/15 13:56:04;;;;;;;;;;;21.10;56.30;;;;;;5071359;28;20019;-55
2021/10/15 13:58:44;;;;;;;;;;;21.20;56.40;;;;;;5070163;28;20015;-57
2021/10/15 14:01:18;;;;;;;;;;;21.10;56.30;;;;;;5071629;28;19925;-54
2021/10/15 14:06:15;;;;;;;;;;;21.10;56.40;;;;;;5070215;28;20003;-56
2021/10/15 14:08:42;;;;;;;;;;;21.10;56.40;;;;;;5070288;28;20004;-54
2021/10/15 14:11:09;;;;;;;;;;;21.10;56.40;;;;;;5071463;28;19935;-56
2021/10/15 14:13:37;;;;;;;;;;;21.10;56.40;;;;;;5070775;28;19928;-53
2021/10/15 14:16:04;;;;;;;;;;;21.10;56.40;;;;;;5071447;28;19999;-55
2021/10/15 14:18:31;;;;;;;;;;;21.20;56.50;;;;;;5070985;28;19929;-55
2021/10/15 14:20:58;;;;;;;;;;;21.20;56.50;;;;;;5070219;28;19967;-57
2021/10/15 14:23:26;;;;;;;;;;;21.20;56.50;;;;;;5070399;28;20390;-56
2021/10/15 14:25:53;;;;;;;;;;;21.20;56.50;;;;;;5070121;28;20016;-55
2021/10/15 14:28:21;;;;;;;;;;;21.20;56.50;;;;;;5071372;28;19960;-56
2021/10/15 14:30:49;;;;;;;;;;;21.20;56.40;;;;;;5071381;28;19963;-57
2021/10/15 14:33:16;;;;;;;;;;;21.20;56.50;;;;;;5069924;28;19928;-55
2021/10/15 14:35:44;;;;;;;;;;;21.20;56.50;;;;;;5084558;28;19928;-57
2021/10/15 14:38:10;;;;;;;;;;;21.20;56.50;;;;;;5068344;28;20339;-54
2021/10/15 14:40:38;;;;;;;;;;;21.20;56.50;;;;;;5070295;28;20380;-57
2021/10/15 14:43:09;;;;;;;;;;;21.20;56.50;;;;;;5070936;28;19925;-55
2021/10/15 14:45:37;;;;;;;;;;;21.20;56.50;;;;;;5075120;28;19989;-56